Airfield :
LOGIN :

Register | Disclaimer

   EN    FR    IT 

 










Legend :    VFR   Marginal VFR   IFR   Intensive IFR   Very Intensive IFR
Visi :
Ceiling :
>= 8 km
>= 3000ft
5 to 8 km
1000 to 3000 ft
1500m to 5 km
500 to 1000 ft
800 to 1500m
200 to 500 ft
< 800m
< 200 ft
Symbols :   Thunderstorms  Fog  Heavy snow  Heavy precipitations  Wind > 20 kt
SIGMETs :     Misc.  Thunderstorms  Icing  Turbulence  Mountain Waves  Volcanic Ashes







- Airport Elevation : 209 ft
- IATA code : CLY
- Download approach charts


LFKC - Calvi

CURRENT METAR :
  • 171130Z AUTO VRB02KT 9999 RA FEW042 SCT054 BKN064 20/17 Q1013 TEMPO NSW BKN013 FEW030CB OVC040

EXPIRED METARs :
  • 171100Z AUTO 13002KT 9999 -RA FEW054/// BKN078/// OVC092/// ///TCU 20/18 Q1013 TEMPO BKN013 FEW030CB OVC040
  • 171030Z AUTO 02001KT 9999 BKN086/// BKN130/// BKN150/// ///CB 20/18 Q1013 TEMPO BKN013 FEW030CB OVC040
  • 171000Z AUTO 00000KT 9999 BKN084/// BKN120/// ///TCU 19/17 Q1013 TEMPO BKN013 FEW030CB OVC040
  • 170930Z AUTO VRB02KT 9999 SCT086 BKN100 OVC130 19/17 Q1013 TEMPO BKN013 FEW030CB OVC040
  • 170900Z AUTO 16005KT 9999 FEW080 OVC120 19/17 Q1013 TEMPO BKN013 FEW030CB OVC040

TAF TAF LFKC
Valid from the 17 at 09:00 until the 18 at 09:00 UTC


170800Z 1709/1809 VRB05KT 9999 FEW030 OVC080 TX22/1712Z TN15/1804Z
TEMPO 1709/1716 7000 -RA BKN013 FEW030CB OVC040
BECMG 1718/1720 18005KT
BECMG 1802/1804 FEW030 SCT090
ATIS : +33 4 95 65 82 49
No reported NOTAMs for that airfield.



MET'MAP, your aeronautical weather chart ! - Copyright ORBIFLY December 2007 - Disclaimer

ORBIFLY MET'MAP TEAM :

Programming & Development : Alexandra Zaïnal
Concept & Development : Baudouin d'Aumeries
Co-Development & Prog : Marc-Olivier Méhu
Technical & hardware support : Manuel Goepfert

Contact : metmap@orbifly.com




SOURCES & CREDITS :

   NOAA